createdAt,value
2023-07-25T00:01:15.338Z,19.93
2023-07-25T00:03:42.893Z,19.93
2023-07-25T00:06:10.414Z,19.92
2023-07-25T00:08:38.105Z,19.93
2023-07-25T00:11:05.655Z,19.93
2023-07-25T00:13:33.163Z,19.92
2023-07-25T00:16:02.136Z,19.93
2023-07-25T00:18:29.679Z,19.93
2023-07-25T00:20:57.439Z,19.92
2023-07-25T00:23:24.922Z,19.93
2023-07-25T00:25:52.482Z,19.93
2023-07-25T00:28:20.040Z,19.94
2023-07-25T00:30:47.513Z,19.92
2023-07-25T00:33:16.379Z,19.94
2023-07-25T00:35:43.827Z,19.94
2023-07-25T00:38:11.336Z,19.93
2023-07-25T00:40:40.068Z,19.93
2023-07-25T00:43:07.665Z,19.93
2023-07-25T00:45:35.533Z,19.93
2023-07-25T00:48:03.108Z,19.94
2023-07-25T00:50:32.586Z,19.94
2023-07-25T00:53:00.926Z,19.94
2023-07-25T00:55:29.168Z,19.94
2023-07-25T00:57:56.737Z,19.93
2023-07-25T01:00:24.290Z,19.94
2023-07-25T01:02:52.022Z,19.93
2023-07-25T01:05:19.755Z,19.93
2023-07-25T01:07:49.057Z,19.93
2023-07-25T01:10:16.672Z,19.94
2023-07-25T01:12:44.141Z,19.92
2023-07-25T01:15:11.764Z,19.94
2023-07-25T01:17:39.283Z,19.94
2023-07-25T01:20:09.182Z,19.93
2023-07-25T01:22:38.194Z,19.92
2023-07-25T01:25:09.128Z,19.92
2023-07-25T01:27:36.679Z,19.92
2023-07-25T01:30:04.378Z,19.92
2023-07-25T01:32:32.073Z,19.92
2023-07-25T01:34:59.696Z,19.93
2023-07-25T01:37:27.446Z,19.92
2023-07-25T01:39:54.937Z,19.92
2023-07-25T01:42:23.747Z,19.92
2023-07-25T01:44:51.231Z,19.91
2023-07-25T01:47:18.719Z,19.91
2023-07-25T01:49:46.332Z,19.91
2023-07-25T01:52:13.803Z,19.91
2023-07-25T01:54:41.331Z,19.91
2023-07-25T01:57:08.803Z,19.91
2023-07-25T01:59:37.699Z,19.91
2023-07-25T02:02:05.356Z,19.91
2023-07-25T02:04:32.920Z,19.92
2023-07-25T02:07:00.456Z,19.92
2023-07-25T02:09:27.945Z,19.91
2023-07-25T02:11:55.509Z,19.91
2023-07-25T02:14:23.730Z,19.91
2023-07-25T02:16:52.591Z,19.91
2023-07-25T02:19:20.128Z,19.91
2023-07-25T02:21:47.609Z,19.92
2023-07-25T02:24:15.177Z,19.92
2023-07-25T02:26:42.660Z,19.92
2023-07-25T02:29:10.141Z,19.92
2023-07-25T02:31:37.678Z,19.91
2023-07-25T02:34:06.525Z,19.92
2023-07-25T02:36:34.157Z,19.92
2023-07-25T02:39:01.721Z,19.92
2023-07-25T02:41:29.578Z,19.92
2023-07-25T02:43:57.420Z,19.92
2023-07-25T02:46:24.997Z,19.92
2023-07-25T02:48:52.504Z,19.92
2023-07-25T02:51:21.313Z,19.92
2023-07-25T02:53:48.829Z,19.92
2023-07-25T02:56:16.328Z,19.92
2023-07-25T02:58:43.806Z,19.91
2023-07-25T03:01:11.385Z,19.90
2023-07-25T03:03:38.897Z,19.91
2023-07-25T03:06:06.486Z,19.91
2023-07-25T03:08:35.333Z,19.91
2023-07-25T03:11:02.797Z,19.91
2023-07-25T03:13:30.311Z,19.90
2023-07-25T03:15:57.816Z,19.90
2023-07-25T03:18:25.286Z,19.90
2023-07-25T03:20:52.793Z,19.91
2023-07-25T03:23:20.266Z,19.91
2023-07-25T03:25:49.096Z,19.90
2023-07-25T03:28:16.591Z,19.90
2023-07-25T03:30:44.096Z,19.91
2023-07-25T03:33:11.607Z,19.90
2023-07-25T03:35:39.063Z,19.90
2023-07-25T03:38:06.551Z,19.91
2023-07-25T03:40:34.039Z,19.91
2023-07-25T03:43:02.865Z,19.90
2023-07-25T03:45:30.399Z,19.90
2023-07-25T03:47:57.917Z,19.91
2023-07-25T03:50:25.452Z,19.91
2023-07-25T03:52:52.954Z,19.91
2023-07-25T03:55:20.497Z,19.91
2023-07-25T03:57:47.959Z,19.90
2023-07-25T04:00:17.109Z,19.91
2023-07-25T04:02:44.675Z,19.91
2023-07-25T04:05:12.200Z,19.92
2023-07-25T04:07:39.727Z,19.90
2023-07-25T04:10:07.639Z,19.91
2023-07-25T04:12:35.132Z,19.93
2023-07-25T04:15:02.788Z,19.93
2023-07-25T04:17:31.701Z,19.93
2023-07-25T04:19:59.271Z,19.95
2023-07-25T04:22:26.749Z,19.95
2023-07-25T04:24:54.286Z,19.94
2023-07-25T04:27:21.774Z,19.95
2023-07-25T04:29:49.244Z,19.95
2023-07-25T04:32:17.001Z,19.95
2023-07-25T04:34:45.842Z,19.96
2023-07-25T04:37:13.393Z,19.96
2023-07-25T04:39:40.893Z,19.96
2023-07-25T04:42:08.544Z,19.96
2023-07-25T04:44:36.022Z,19.95
2023-07-25T04:47:03.509Z,19.95
2023-07-25T04:49:30.976Z,19.96
2023-07-25T04:51:59.830Z,19.95
2023-07-25T04:54:27.362Z,19.95
2023-07-25T04:56:54.835Z,19.95
2023-07-25T04:59:22.339Z,19.95
2023-07-25T05:01:49.869Z,19.95
2023-07-25T05:04:17.375Z,19.95
2023-07-25T05:06:45.052Z,19.95
2023-07-25T05:09:13.960Z,19.95
2023-07-25T05:11:41.482Z,19.95
2023-07-25T05:14:08.937Z,19.95
2023-07-25T05:16:36.453Z,19.94
2023-07-25T05:19:03.936Z,19.95
2023-07-25T05:21:31.726Z,19.95
2023-07-25T05:23:59.505Z,19.95
2023-07-25T05:26:28.282Z,19.97
2023-07-25T05:28:55.769Z,19.97
2023-07-25T05:31:23.367Z,19.96
2023-07-25T05:33:50.858Z,19.96
2023-07-25T05:36:18.343Z,19.96
2023-07-25T05:38:45.847Z,19.97
2023-07-25T05:41:13.342Z,19.97
2023-07-25T05:43:42.263Z,19.96
2023-07-25T05:46:09.923Z,19.96
2023-07-25T05:48:37.408Z,19.96
2023-07-25T05:51:04.881Z,19.96
2023-07-25T05:53:32.371Z,19.96
2023-07-25T05:55:59.913Z,19.96
2023-07-25T05:58:27.396Z,19.96
2023-07-25T06:00:56.356Z,19.95
2023-07-25T06:03:23.918Z,19.96
2023-07-25T06:05:51.412Z,19.95
2023-07-25T06:08:18.929Z,19.95
2023-07-25T06:10:46.496Z,19.95
2023-07-25T06:13:13.998Z,19.94
2023-07-25T06:15:41.584Z,19.95
2023-07-25T06:18:10.431Z,19.94
2023-07-25T06:20:37.944Z,19.94
2023-07-25T06:23:05.435Z,19.94
2023-07-25T06:25:32.972Z,19.94
2023-07-25T06:28:00.442Z,19.94
2023-07-25T06:30:27.966Z,19.94
2023-07-25T06:32:56.297Z,19.93
2023-07-25T06:35:25.193Z,19.94
2023-07-25T06:37:52.714Z,19.93
2023-07-25T06:40:20.319Z,19.95
2023-07-25T06:42:47.817Z,19.94
2023-07-25T06:45:15.335Z,19.94
2023-07-25T06:47:42.793Z,19.94
2023-07-25T06:50:10.464Z,19.94
2023-07-25T06:52:39.356Z,19.94
2023-07-25T06:55:07.442Z,19.94
2023-07-25T06:57:34.924Z,19.95
2023-07-25T07:00:03.444Z,19.94
2023-07-25T07:02:31.049Z,19.95
2023-07-25T07:04:58.617Z,19.96
2023-07-25T07:07:26.288Z,19.96
2023-07-25T07:09:55.261Z,19.95
2023-07-25T07:12:22.721Z,19.97
2023-07-25T07:14:50.241Z,19.96
2023-07-25T07:17:17.701Z,19.96
2023-07-25T07:19:45.199Z,19.95
2023-07-25T07:22:12.701Z,19.96
2023-07-25T07:24:40.235Z,19.96
2023-07-25T07:27:09.161Z,19.97
2023-07-25T07:29:36.682Z,19.96
2023-07-25T07:32:04.404Z,19.96
2023-07-25T07:34:31.921Z,19.96
2023-07-25T07:36:59.386Z,19.96
2023-07-25T07:39:28.103Z,19.95
2023-07-25T07:41:55.589Z,19.96
2023-07-25T07:44:25.714Z,19.95
2023-07-25T07:46:53.413Z,19.95
2023-07-25T07:49:20.935Z,19.94
2023-07-25T07:52:01.342Z,19.96
2023-07-25T07:54:35.866Z,19.95
2023-07-25T07:57:03.398Z,19.95
2023-07-25T07:59:32.252Z,19.96
2023-07-25T08:01:59.770Z,19.95
2023-07-25T08:04:27.262Z,19.94
2023-07-25T08:06:54.757Z,19.94
2023-07-25T08:09:22.292Z,19.95
2023-07-25T08:11:49.787Z,19.95
2023-07-25T08:14:17.288Z,19.94
2023-07-25T08:16:46.158Z,19.94
2023-07-25T08:19:13.646Z,19.94
2023-07-25T08:21:41.147Z,19.94
2023-07-25T08:24:08.686Z,19.93
2023-07-25T08:26:36.260Z,19.93
2023-07-25T08:29:03.800Z,19.94
2023-07-25T08:31:31.564Z,19.93
2023-07-25T08:34:00.713Z,19.94
2023-07-25T08:36:28.195Z,19.94
2023-07-25T08:38:55.695Z,19.94
2023-07-25T08:41:27.547Z,19.95
2023-07-25T08:43:55.750Z,19.94
2023-07-25T08:46:28.754Z,19.95
2023-07-25T08:49:01.680Z,19.95
2023-07-25T08:51:34.799Z,19.95
2023-07-25T08:54:04.085Z,19.95
2023-07-25T08:56:31.975Z,19.96
2023-07-25T08:58:59.896Z,19.95
2023-07-25T09:01:27.499Z,19.95
2023-07-25T09:03:55.330Z,19.96
2023-07-25T09:06:22.955Z,19.95
2023-07-25T09:08:51.870Z,19.95
2023-07-25T09:11:21.253Z,19.95
2023-07-25T09:13:49.240Z,19.94
2023-07-25T09:16:17.362Z,19.95
2023-07-25T09:18:45.053Z,19.95
2023-07-25T09:21:13.125Z,19.95
2023-07-25T09:23:42.292Z,19.94
2023-07-25T09:26:12.151Z,19.94
2023-07-25T09:28:49.445Z,19.94
2023-07-25T09:31:16.991Z,19.94
2023-07-25T09:33:48.076Z,19.93
2023-07-25T09:36:15.775Z,19.93
2023-07-25T09:38:48.729Z,19.93
2023-07-25T09:41:18.220Z,19.93
2023-07-25T09:43:45.767Z,19.93
2023-07-25T09:46:13.707Z,19.93
2023-07-25T09:48:44.179Z,19.93
2023-07-25T09:51:12.272Z,19.93
2023-07-25T09:53:39.964Z,19.92
2023-07-25T09:56:08.039Z,19.92
2023-07-25T09:58:42.274Z,19.93
2023-07-25T10:01:15.904Z,19.93
2023-07-25T10:03:44.661Z,19.94
2023-07-25T10:06:13.157Z,19.93
2023-07-25T10:08:40.713Z,19.93
2023-07-25T10:11:09.088Z,19.93
2023-07-25T10:13:37.895Z,19.94
2023-07-25T10:16:06.216Z,19.93
2023-07-25T10:18:34.967Z,19.93
2023-07-25T10:21:02.701Z,19.93
2023-07-25T10:23:31.277Z,19.94
2023-07-25T10:25:58.852Z,19.94
2023-07-25T10:28:26.351Z,19.95
2023-07-25T10:30:55.201Z,19.94
2023-07-25T10:33:25.599Z,19.95
2023-07-25T10:35:54.758Z,19.95
2023-07-25T10:38:23.481Z,19.95
2023-07-25T10:40:55.543Z,19.94
2023-07-25T10:43:23.726Z,19.94
2023-07-25T10:45:52.610Z,19.94
2023-07-25T10:48:37.974Z,19.94
2023-07-25T10:51:08.867Z,19.94
2023-07-25T10:53:36.764Z,19.93
2023-07-25T10:56:10.935Z,19.94
2023-07-25T10:58:39.559Z,19.94
2023-07-25T11:01:07.753Z,19.94
2023-07-25T11:03:35.874Z,19.94
2023-07-25T11:06:27.474Z,19.94
2023-07-25T11:08:56.356Z,19.93
2023-07-25T11:11:23.898Z,19.93
2023-07-25T11:13:51.429Z,19.94
2023-07-25T11:16:19.075Z,19.93
2023-07-25T11:18:50.537Z,19.93
2023-07-25T11:21:18.173Z,19.94
2023-07-25T11:23:45.696Z,19.93
2023-07-25T11:26:14.681Z,19.93
2023-07-25T11:28:42.450Z,19.93
2023-07-25T11:31:09.979Z,19.93
2023-07-25T11:33:38.276Z,19.93
2023-07-25T11:36:07.138Z,19.92
2023-07-25T11:38:36.452Z,19.91
2023-07-25T11:41:04.231Z,19.93
2023-07-25T11:43:33.509Z,19.91
2023-07-25T11:46:01.542Z,19.91
2023-07-25T11:48:30.021Z,19.93
2023-07-25T11:50:57.715Z,19.94
2023-07-25T11:53:29.953Z,19.94
2023-07-25T11:55:57.875Z,19.94
2023-07-25T11:58:25.355Z,19.95
2023-07-25T12:00:55.809Z,19.94
2023-07-25T12:03:24.459Z,19.95
2023-07-25T12:05:55.886Z,19.95
2023-07-25T12:08:33.309Z,19.96
2023-07-25T12:11:04.209Z,19.95
2023-07-25T12:13:31.682Z,19.96
2023-07-25T12:16:01.620Z,19.97
2023-07-25T12:18:29.676Z,19.96
2023-07-25T12:20:59.322Z,19.95
2023-07-25T12:23:27.862Z,19.96
2023-07-25T12:25:55.588Z,19.97
2023-07-25T12:28:23.659Z,19.97
2023-07-25T12:30:51.187Z,19.96
2023-07-25T12:33:20.060Z,19.96
2023-07-25T12:35:47.562Z,19.98
2023-07-25T12:38:15.090Z,19.96
2023-07-25T12:40:42.604Z,19.97
2023-07-25T12:43:10.089Z,19.97
2023-07-25T12:45:37.593Z,19.96
2023-07-25T12:48:05.249Z,19.96
2023-07-25T12:50:34.062Z,19.96
2023-07-25T12:53:01.575Z,19.97
2023-07-25T12:55:29.059Z,19.96
2023-07-25T12:57:56.522Z,19.96
2023-07-25T13:00:24.106Z,19.95
2023-07-25T13:02:51.745Z,19.96
2023-07-25T13:05:20.536Z,19.94
2023-07-25T13:07:50.350Z,19.96
2023-07-25T13:10:17.909Z,19.94
2023-07-25T13:12:45.378Z,19.96
2023-07-25T13:15:12.903Z,19.96
2023-07-25T13:17:40.469Z,19.96
2023-07-25T13:20:09.473Z,19.95
2023-07-25T13:22:37.187Z,19.95
2023-07-25T13:25:06.567Z,19.96
2023-07-25T13:27:34.074Z,19.96
2023-07-25T13:30:01.786Z,19.96
2023-07-25T13:32:29.384Z,19.95
2023-07-25T13:34:56.839Z,19.96
2023-07-25T13:37:24.381Z,19.96
2023-07-25T13:39:51.896Z,19.97
2023-07-25T13:42:23.496Z,19.97
2023-07-25T13:44:51.550Z,19.97
2023-07-25T13:47:19.510Z,19.96
2023-07-25T13:49:47.021Z,19.97
2023-07-25T13:52:14.536Z,19.96
2023-07-25T13:54:42.017Z,19.96
2023-07-25T13:57:10.940Z,19.96
2023-07-25T13:59:39.931Z,19.98
2023-07-25T14:02:07.679Z,19.96
2023-07-25T14:04:35.307Z,19.97
2023-07-25T14:07:03.447Z,19.97
2023-07-25T14:09:31.203Z,19.96
2023-07-25T14:11:58.793Z,19.95
2023-07-25T14:14:26.307Z,19.95
2023-07-25T14:16:55.207Z,19.95
2023-07-25T14:19:22.665Z,19.96
2023-07-25T14:21:50.241Z,19.96
2023-07-25T14:24:17.808Z,19.95
2023-07-25T14:26:45.313Z,19.96
2023-07-25T14:29:12.892Z,19.95
2023-07-25T14:31:40.455Z,19.95
2023-07-25T14:34:09.349Z,19.95
2023-07-25T14:36:36.844Z,19.95
2023-07-25T14:39:04.421Z,19.95
2023-07-25T14:41:31.906Z,19.95
2023-07-25T14:43:59.390Z,19.95
2023-07-25T14:46:26.901Z,19.94
2023-07-25T14:48:54.399Z,19.94
2023-07-25T14:51:23.248Z,19.95
2023-07-25T14:53:50.779Z,19.95
2023-07-25T14:56:18.772Z,19.94
2023-07-25T14:58:46.315Z,19.94
2023-07-25T15:01:14.142Z,19.95
2023-07-25T15:03:41.754Z,19.95
2023-07-25T15:06:09.644Z,19.95
2023-07-25T15:08:38.482Z,19.96
2023-07-25T15:11:06.270Z,19.96
2023-07-25T15:13:33.797Z,19.96
2023-07-25T15:16:01.318Z,19.95
2023-07-25T15:18:28.878Z,19.96
2023-07-25T15:20:56.426Z,19.96
2023-07-25T15:23:24.043Z,19.94
2023-07-25T15:25:52.871Z,19.95
2023-07-25T15:28:20.379Z,19.97
2023-07-25T15:30:47.890Z,19.96
2023-07-25T15:33:15.383Z,19.96
2023-07-25T15:35:42.874Z,19.96
2023-07-25T15:38:10.675Z,19.95
2023-07-25T15:40:38.198Z,19.95
2023-07-25T15:43:10.481Z,19.96
2023-07-25T15:45:38.634Z,19.95
2023-07-25T15:48:06.693Z,19.95
2023-07-25T15:50:34.154Z,19.96
2023-07-25T15:53:01.872Z,19.95
2023-07-25T15:55:29.398Z,19.95
2023-07-25T15:57:56.904Z,19.95
2023-07-25T16:00:26.192Z,19.95
2023-07-25T16:02:53.790Z,19.95
2023-07-25T16:05:21.301Z,19.94
2023-07-25T16:07:48.777Z,19.94
2023-07-25T16:10:16.367Z,19.94
2023-07-25T16:12:43.843Z,19.96
2023-07-25T16:15:11.580Z,19.95
2023-07-25T16:17:40.701Z,19.95
2023-07-25T16:20:08.791Z,19.94
2023-07-25T16:22:36.267Z,19.93
2023-07-25T16:25:04.022Z,19.94
2023-07-25T16:27:31.545Z,19.95
2023-07-25T16:29:59.073Z,19.94
2023-07-25T16:32:28.976Z,19.94
2023-07-25T16:34:58.821Z,19.94
2023-07-25T16:37:26.281Z,19.94
2023-07-25T16:39:53.780Z,19.95
2023-07-25T16:42:21.309Z,19.95
2023-07-25T16:44:48.763Z,19.94
2023-07-25T16:47:17.027Z,19.94
2023-07-25T16:49:44.486Z,19.95
2023-07-25T16:52:13.339Z,19.95
2023-07-25T16:54:40.812Z,19.94
2023-07-25T16:57:08.306Z,19.94
2023-07-25T16:59:35.758Z,19.94
2023-07-25T17:02:03.287Z,19.95
2023-07-25T17:04:30.781Z,19.94
2023-07-25T17:06:58.243Z,19.94
2023-07-25T17:09:27.070Z,19.95
2023-07-25T17:11:54.573Z,19.95
2023-07-25T17:14:22.041Z,19.94
2023-07-25T17:16:49.577Z,19.93
2023-07-25T17:19:17.050Z,19.95
2023-07-25T17:21:44.797Z,19.93
2023-07-25T17:24:12.502Z,19.93
2023-07-25T17:26:41.357Z,19.94
2023-07-25T17:29:08.871Z,19.94
2023-07-25T17:31:36.709Z,19.93
2023-07-25T17:34:04.568Z,19.92
2023-07-25T17:36:32.142Z,19.92
2023-07-25T17:38:59.638Z,19.92
2023-07-25T17:41:27.103Z,19.93
2023-07-25T17:43:55.922Z,19.92
2023-07-25T17:46:23.508Z,19.92
2023-07-25T17:48:52.472Z,19.93
2023-07-25T17:51:20.122Z,19.92
2023-07-25T17:53:48.369Z,19.93
2023-07-25T17:56:15.816Z,19.91
2023-07-25T17:58:43.281Z,19.92
2023-07-25T18:01:13.823Z,19.91
2023-07-25T18:03:41.761Z,19.91
2023-07-25T18:06:11.095Z,19.91
2023-07-25T18:08:38.743Z,19.91
2023-07-25T18:11:06.442Z,19.92
2023-07-25T18:13:33.981Z,19.91
2023-07-25T18:16:01.597Z,19.91
2023-07-25T18:18:30.406Z,19.91
2023-07-25T18:20:57.934Z,19.92
2023-07-25T18:23:25.511Z,19.92
2023-07-25T18:25:53.166Z,19.92
2023-07-25T18:28:21.838Z,19.91
2023-07-25T18:30:49.347Z,19.93
2023-07-25T18:33:16.874Z,19.92
2023-07-25T18:35:45.748Z,19.92
2023-07-25T18:38:13.255Z,19.93
2023-07-25T18:40:40.741Z,19.91
2023-07-25T18:43:08.273Z,19.92
2023-07-25T18:45:35.786Z,19.91
2023-07-25T18:48:03.304Z,19.92
2023-07-25T18:50:30.809Z,19.92
2023-07-25T18:52:59.667Z,19.92
2023-07-25T18:55:27.244Z,19.91
2023-07-25T18:57:54.747Z,19.92
2023-07-25T19:00:22.268Z,19.91
2023-07-25T19:02:49.775Z,19.91
2023-07-25T19:05:17.478Z,19.90
2023-07-25T19:07:44.960Z,19.91
2023-07-25T19:10:14.264Z,19.91
2023-07-25T19:12:42.045Z,19.90
2023-07-25T19:15:09.733Z,19.90
2023-07-25T19:17:37.662Z,19.90
2023-07-25T19:20:05.477Z,19.90
2023-07-25T19:22:35.037Z,19.89
2023-07-25T19:25:03.153Z,19.89
2023-07-25T19:27:32.010Z,19.89
2023-07-25T19:29:59.497Z,19.89
2023-07-25T19:32:26.982Z,19.89
2023-07-25T19:34:54.928Z,19.89
2023-07-25T19:37:22.379Z,19.89
2023-07-25T19:39:49.945Z,19.90
2023-07-25T19:42:17.540Z,19.90
2023-07-25T19:44:46.632Z,19.93
2023-07-25T19:47:14.142Z,19.95
2023-07-25T19:49:41.674Z,19.95
2023-07-25T19:52:09.383Z,19.94
2023-07-25T19:54:36.884Z,19.94
2023-07-25T19:57:04.716Z,19.94
2023-07-25T19:59:32.216Z,19.94
2023-07-25T20:02:01.119Z,19.94
2023-07-25T20:04:28.583Z,19.93
2023-07-25T20:06:56.081Z,19.94
2023-07-25T20:09:23.684Z,19.94
2023-07-25T20:11:51.235Z,19.94
2023-07-25T20:14:18.732Z,19.94
2023-07-25T20:16:46.745Z,19.93
2023-07-25T20:19:18.428Z,19.94
2023-07-25T20:21:46.106Z,19.94
2023-07-25T20:24:13.857Z,19.94
2023-07-25T20:26:41.633Z,19.94
2023-07-25T20:29:09.198Z,19.93
2023-07-25T20:31:36.710Z,19.93
2023-07-25T20:34:04.279Z,19.94
2023-07-25T20:36:33.467Z,19.93
2023-07-25T20:39:01.139Z,19.93
2023-07-25T20:41:28.640Z,19.94
2023-07-25T20:43:56.588Z,19.93
2023-07-25T20:46:24.195Z,19.93
2023-07-25T20:48:51.727Z,19.93
2023-07-25T20:51:19.279Z,19.93
2023-07-25T20:53:48.091Z,19.93
2023-07-25T20:56:15.554Z,19.92
2023-07-25T20:58:43.065Z,19.91
2023-07-25T21:01:10.516Z,19.92
2023-07-25T21:03:38.131Z,19.92
2023-07-25T21:06:05.750Z,19.93
2023-07-25T21:08:33.220Z,19.93
2023-07-25T21:11:03.059Z,19.92
2023-07-25T21:13:30.550Z,19.93
2023-07-25T21:15:58.056Z,19.92
2023-07-25T21:18:25.566Z,19.92
2023-07-25T21:20:53.250Z,19.92
2023-07-25T21:23:23.450Z,19.92
2023-07-25T21:25:52.080Z,19.92
2023-07-25T21:28:21.223Z,19.92
2023-07-25T21:30:48.797Z,19.92
2023-07-25T21:33:16.919Z,19.91
2023-07-25T21:35:44.422Z,19.92
2023-07-25T21:38:12.023Z,19.91
2023-07-25T21:40:39.494Z,19.92
2023-07-25T21:43:06.997Z,19.92
2023-07-25T21:45:35.949Z,19.92
2023-07-25T21:48:03.441Z,19.92
2023-07-25T21:50:30.975Z,19.92
2023-07-25T21:52:58.468Z,19.91
2023-07-25T21:55:25.950Z,19.91
2023-07-25T21:57:53.456Z,19.92
2023-07-25T22:00:21.305Z,19.92
2023-07-25T22:02:50.261Z,19.91
2023-07-25T22:05:17.840Z,19.91
2023-07-25T22:07:47.290Z,19.91
2023-07-25T22:10:14.798Z,19.92
2023-07-25T22:12:43.662Z,19.89
2023-07-25T22:15:11.619Z,19.91
2023-07-25T22:17:39.135Z,19.91
2023-07-25T22:20:09.234Z,19.89
2023-07-25T22:22:37.521Z,19.91
2023-07-25T22:25:05.195Z,19.90
2023-07-25T22:27:32.739Z,19.90
2023-07-25T22:30:00.216Z,19.90
2023-07-25T22:32:28.069Z,19.91
2023-07-25T22:34:55.594Z,19.90
2023-07-25T22:37:27.860Z,19.89
2023-07-25T22:39:55.315Z,19.89
2023-07-25T22:42:23.871Z,19.89
2023-07-25T22:44:51.621Z,19.89
2023-07-25T22:47:19.098Z,19.89
2023-07-25T22:49:47.465Z,19.89
2023-07-25T22:52:15.153Z,19.88
2023-07-25T22:54:44.014Z,19.88
2023-07-25T22:57:11.479Z,19.88
2023-07-25T22:59:39.475Z,19.89
2023-07-25T23:02:07.719Z,19.88
2023-07-25T23:04:35.343Z,19.88
2023-07-25T23:07:02.817Z,19.89
2023-07-25T23:09:30.887Z,19.90
2023-07-25T23:11:59.683Z,19.90
2023-07-25T23:14:27.251Z,19.90
2023-07-25T23:16:54.721Z,19.91
2023-07-25T23:19:22.231Z,19.91
2023-07-25T23:21:49.723Z,19.89
2023-07-25T23:24:17.250Z,19.89
2023-07-25T23:26:44.758Z,19.90
2023-07-25T23:29:14.142Z,19.91
2023-07-25T23:31:41.643Z,19.89
2023-07-25T23:34:09.230Z,19.90
2023-07-25T23:36:42.808Z,19.89
2023-07-25T23:39:10.301Z,19.90
2023-07-25T23:41:37.825Z,19.90
2023-07-25T23:44:05.602Z,19.89
2023-07-25T23:46:35.206Z,19.89
2023-07-25T23:49:03.029Z,19.89
2023-07-25T23:51:30.575Z,19.88
2023-07-25T23:53:58.076Z,19.89
2023-07-25T23:56:25.576Z,19.89
2023-07-25T23:58:54.452Z,19.87
